createdAt,value
2022-08-25T00:00:18.841Z,101543.06
2022-08-25T00:02:55.613Z,101537.03
2022-08-25T00:05:29.323Z,101527.78
2022-08-25T00:07:58.841Z,101531.34
2022-08-25T00:10:27.284Z,101533.59
2022-08-25T00:12:55.195Z,101534.72
2022-08-25T00:15:23.610Z,101534.22
2022-08-25T00:17:51.585Z,101529.03
2022-08-25T00:20:19.929Z,101531.59
2022-08-25T00:22:48.966Z,101540.69
2022-08-25T00:25:18.872Z,101538.22
2022-08-25T00:27:47.360Z,101533.03
2022-08-25T00:30:16.798Z,101539.97
2022-08-25T00:32:50.521Z,101535.59
2022-08-25T00:35:23.488Z,101537.00
2022-08-25T00:37:51.325Z,101537.00
2022-08-25T00:40:20.543Z,101537.31
2022-08-25T00:42:48.292Z,101537.63
2022-08-25T00:45:16.096Z,101541.50
2022-08-25T00:47:43.815Z,101540.69
2022-08-25T00:50:12.863Z,101539.06
2022-08-25T00:52:45.105Z,101542.13
2022-08-25T00:55:16.911Z,101547.63
2022-08-25T00:57:49.017Z,101539.69
2022-08-25T01:00:20.782Z,101538.03
2022-08-25T01:02:48.989Z,101534.47
2022-08-25T01:05:17.954Z,101535.91
2022-08-25T01:07:46.128Z,101534.28
2022-08-25T01:10:14.626Z,101534.59
2022-08-25T01:12:42.497Z,101536.53
2022-08-25T01:15:14.219Z,101528.88
2022-08-25T01:17:48.848Z,101535.50
2022-08-25T01:20:19.598Z,101530.31
2022-08-25T01:22:54.997Z,101529.25
2022-08-25T01:25:33.279Z,101529.25
2022-08-25T01:28:01.327Z,101531.19
2022-08-25T01:30:29.071Z,101529.88
2022-08-25T01:32:56.767Z,101521.91
2022-08-25T01:35:24.921Z,101523.34
2022-08-25T01:37:53.939Z,101529.16
2022-08-25T01:40:23.056Z,101527.81
2022-08-25T01:42:59.572Z,101533.63
2022-08-25T01:45:28.907Z,101535.06
2022-08-25T01:47:56.810Z,101530.69
2022-08-25T01:50:24.586Z,101526.59
2022-08-25T01:52:59.613Z,101532.41
2022-08-25T01:55:27.879Z,101538.53
2022-08-25T01:57:55.866Z,101530.88
2022-08-25T02:00:24.402Z,101539.44
2022-08-25T02:02:55.451Z,101526.28
2022-08-25T02:05:23.934Z,101532.91
2022-08-25T02:07:51.815Z,101539.53
2022-08-25T02:10:22.390Z,101534.63
2022-08-25T02:12:51.061Z,101527.00
2022-08-25T02:15:22.333Z,101528.94
2022-08-25T02:17:50.061Z,101529.53
2022-08-25T02:20:18.996Z,101523.22
2022-08-25T02:22:52.995Z,101524.63
2022-08-25T02:25:25.902Z,101524.44
2022-08-25T02:27:53.586Z,101531.88
2022-08-25T02:30:22.170Z,101527.47
2022-08-25T02:32:49.902Z,101525.34
2022-08-25T02:35:18.051Z,101520.75
2022-08-25T02:37:45.718Z,101528.38
2022-08-25T02:40:13.972Z,101524.00
2022-08-25T02:42:43.459Z,101529.50
2022-08-25T02:45:11.543Z,101520.75
2022-08-25T02:47:39.374Z,101525.44
2022-08-25T02:50:08.513Z,101520.22
2022-08-25T02:52:36.318Z,101519.72
2022-08-25T02:55:07.028Z,101511.47
2022-08-25T02:57:34.779Z,101507.38
2022-08-25T03:00:05.920Z,101510.41
2022-08-25T03:02:33.723Z,101504.38
2022-08-25T03:05:01.509Z,101516.50
2022-08-25T03:07:29.365Z,101519.03
2022-08-25T03:10:07.689Z,101514.66
2022-08-25T03:12:35.342Z,101497.66
2022-08-25T03:15:12.908Z,101499.88
2022-08-25T03:17:41.020Z,101498.25
2022-08-25T03:20:13.948Z,101497.75
2022-08-25T03:22:42.581Z,101499.97
2022-08-25T03:25:28.013Z,101499.16
2022-08-25T03:27:55.874Z,101497.00
2022-08-25T03:30:25.822Z,101486.63
2022-08-25T03:32:54.066Z,101489.66
2022-08-25T03:35:21.938Z,101488.03
2022-08-25T03:37:51.139Z,101483.13
2022-08-25T03:40:18.917Z,101496.38
2022-08-25T03:42:46.952Z,101485.47
2022-08-25T03:45:17.757Z,101472.91
2022-08-25T03:47:49.111Z,101483.31
2022-08-25T03:50:19.080Z,101480.84
2022-08-25T03:52:53.717Z,101483.91
2022-08-25T03:55:23.329Z,101479.00
2022-08-25T03:57:51.626Z,101470.78
2022-08-25T04:00:19.843Z,101471.38
2022-08-25T04:02:48.971Z,101471.38
2022-08-25T04:05:16.734Z,101464.84
2022-08-25T04:07:44.402Z,101465.13
2022-08-25T04:10:12.876Z,101459.13
2022-08-25T04:12:41.758Z,101466.56
2022-08-25T04:15:10.638Z,101464.94
2022-08-25T04:17:40.732Z,101467.44
2022-08-25T04:20:14.161Z,101472.13
2022-08-25T04:22:44.959Z,101476.00
2022-08-25T04:25:13.432Z,101474.66
2022-08-25T04:27:41.163Z,101476.88
2022-08-25T04:30:09.943Z,101467.84
2022-08-25T04:32:37.867Z,101463.22
2022-08-25T04:35:06.355Z,101456.63
2022-08-25T04:37:35.746Z,101452.75
2022-08-25T04:40:04.532Z,101446.75
2022-08-25T04:42:32.265Z,101446.53
2022-08-25T04:45:01.813Z,101442.97
2022-08-25T04:47:29.837Z,101444.91
2022-08-25T04:49:57.564Z,101440.00
2022-08-25T04:52:25.259Z,101441.94
2022-08-25T04:54:54.438Z,101447.72
2022-08-25T04:57:22.181Z,101443.34
2022-08-25T04:59:50.086Z,101443.66
2022-08-25T05:02:17.740Z,101443.13
2022-08-25T05:04:45.453Z,101445.34
2022-08-25T05:07:13.154Z,101448.91
2022-08-25T05:09:41.087Z,101451.97
2022-08-25T05:12:10.622Z,101457.75
2022-08-25T05:14:40.452Z,101454.50
2022-08-25T05:17:08.818Z,101452.84
2022-08-25T05:19:37.159Z,101463.84
2022-08-25T05:22:04.884Z,101465.25
2022-08-25T05:24:32.597Z,101469.41
2022-08-25T05:27:00.263Z,101469.69
2022-08-25T05:29:29.277Z,101473.84
2022-08-25T05:31:57.179Z,101465.09
2022-08-25T05:34:25.708Z,101472.50
2022-08-25T05:36:53.466Z,101473.63
2022-08-25T05:39:21.145Z,101472.00
2022-08-25T05:41:48.850Z,101474.22
2022-08-25T05:44:20.956Z,101468.50
2022-08-25T05:46:51.159Z,101471.78
2022-08-25T05:49:18.987Z,101472.88
2022-08-25T05:51:46.659Z,101482.22
2022-08-25T05:54:14.374Z,101486.91
2022-08-25T05:56:42.073Z,101482.81
2022-08-25T05:59:10.457Z,101486.69
2022-08-25T06:01:55.872Z,101488.59
2022-08-25T06:04:24.912Z,101483.69
2022-08-25T06:06:53.891Z,101491.66
2022-08-25T06:09:22.293Z,101482.88
2022-08-25T06:11:54.453Z,101491.13
2022-08-25T06:14:23.177Z,101483.19
2022-08-25T06:16:51.593Z,101491.41
2022-08-25T06:19:19.695Z,101479.97
2022-08-25T06:21:49.148Z,101491.72
2022-08-25T06:24:17.098Z,101476.88
2022-08-25T06:26:45.110Z,101483.19
2022-08-25T06:29:13.990Z,101488.66
2022-08-25T06:31:42.509Z,101483.47
2022-08-25T06:34:10.961Z,101483.78
2022-08-25T06:36:38.642Z,101487.34
2022-08-25T06:39:10.529Z,101481.03
2022-08-25T06:41:39.665Z,101484.59
2022-08-25T06:44:07.368Z,101488.97
2022-08-25T06:46:36.935Z,101494.44
2022-08-25T06:49:06.075Z,101502.41
2022-08-25T06:51:36.035Z,101496.91
2022-08-25T06:54:04.961Z,101497.72
2022-08-25T06:56:34.605Z,101486.50
2022-08-25T06:59:02.807Z,101487.56
2022-08-25T07:01:32.153Z,101483.19
2022-08-25T07:04:02.615Z,101481.53
2022-08-25T07:06:32.366Z,101479.31
2022-08-25T07:09:00.935Z,101482.88
2022-08-25T07:11:29.217Z,101471.63
2022-08-25T07:13:58.244Z,101472.44
2022-08-25T07:16:29.009Z,101468.56
2022-08-25T07:18:59.086Z,101472.94
2022-08-25T07:21:33.188Z,101467.47
2022-08-25T07:24:03.380Z,101478.16
2022-08-25T07:26:37.681Z,101474.28
2022-08-25T07:29:10.970Z,101472.34
2022-08-25T07:31:39.001Z,101474.00
2022-08-25T07:34:25.580Z,101467.69
2022-08-25T07:36:54.509Z,101466.56
2022-08-25T07:39:23.433Z,101466.28
2022-08-25T07:41:52.368Z,101455.28
2022-08-25T07:44:23.217Z,101459.69
2022-08-25T07:46:52.507Z,101461.31
2022-08-25T07:49:23.151Z,101467.31
2022-08-25T07:52:04.463Z,101461.81
2022-08-25T07:54:34.315Z,101460.72
2022-08-25T07:57:03.109Z,101457.16
2022-08-25T07:59:39.703Z,101456.84
2022-08-25T08:02:16.137Z,101451.06
2022-08-25T08:04:48.415Z,101457.09
2022-08-25T08:07:18.140Z,101455.66
2022-08-25T08:09:45.879Z,101458.13
2022-08-25T08:12:13.543Z,101452.34
2022-08-25T08:14:45.113Z,101448.47
2022-08-25T08:17:14.067Z,101455.31
2022-08-25T08:19:45.120Z,101449.50
2022-08-25T08:22:15.997Z,101450.84
2022-08-25T08:24:54.806Z,101449.72
2022-08-25T08:27:24.370Z,101456.84
2022-08-25T08:29:53.735Z,101457.38
2022-08-25T08:32:25.176Z,101449.44
2022-08-25T08:34:59.288Z,101451.28
2022-08-25T08:37:28.077Z,101454.84
2022-08-25T08:39:56.041Z,101450.69
2022-08-25T08:42:43.012Z,101441.34
2022-08-25T08:45:28.265Z,101438.28
2022-08-25T08:48:22.459Z,101433.69
2022-08-25T08:51:02.620Z,101442.88
2022-08-25T08:53:46.233Z,101448.13
2022-08-25T08:56:15.942Z,101440.34
2022-08-25T08:58:49.997Z,101443.63
2022-08-25T09:01:27.617Z,101442.22
2022-08-25T09:04:01.194Z,101438.03
2022-08-25T09:06:38.702Z,101446.81
2022-08-25T09:09:07.854Z,101442.63
2022-08-25T09:11:50.707Z,101438.47
2022-08-25T09:14:33.909Z,101442.56
2022-08-25T09:17:07.970Z,101448.28
2022-08-25T09:20:03.962Z,101438.59
2022-08-25T09:22:47.519Z,101436.06
2022-08-25T09:25:39.838Z,101438.22
2022-08-25T09:28:21.093Z,101439.25
2022-08-25T09:30:55.686Z,101437.00
2022-08-25T09:33:26.774Z,101439.97
2022-08-25T09:35:57.556Z,101442.13
2022-08-25T09:38:26.194Z,101436.00
2022-08-25T09:40:56.975Z,101434.59
2022-08-25T09:43:33.124Z,101440.31
2022-08-25T09:46:02.880Z,101436.66
2022-08-25T09:48:39.775Z,101429.72
2022-08-25T09:51:18.825Z,101422.19
2022-08-25T09:53:53.166Z,101423.22
2022-08-25T09:56:22.795Z,101416.84
2022-08-25T09:58:51.303Z,101411.53
2022-08-25T10:01:22.336Z,101418.38
2022-08-25T10:04:00.783Z,101413.06
2022-08-25T10:06:34.399Z,101400.63
2022-08-25T10:09:06.456Z,101400.03
2022-08-25T10:11:39.315Z,101396.16
2022-08-25T10:14:18.793Z,101401.25
2022-08-25T10:16:48.789Z,101396.44
2022-08-25T10:19:26.825Z,101393.78
2022-08-25T10:22:08.237Z,101381.84
2022-08-25T10:24:41.011Z,101384.69
2022-08-25T10:27:23.286Z,101381.81
2022-08-25T10:30:08.044Z,101371.53
2022-08-25T10:32:58.019Z,101373.88
2022-08-25T10:35:32.266Z,101369.06
2022-08-25T10:38:11.345Z,101370.56
2022-08-25T10:40:45.701Z,101357.63
2022-08-25T10:43:25.354Z,101358.31
2022-08-25T10:46:05.106Z,101357.69
2022-08-25T10:48:53.654Z,101350.44
2022-08-25T10:51:52.742Z,101345.59
2022-08-25T10:54:40.470Z,101341.88
2022-08-25T10:57:19.323Z,101338.50
2022-08-25T10:59:57.389Z,101329.78
2022-08-25T11:02:48.955Z,101334.03
2022-08-25T11:05:27.063Z,101327.28
2022-08-25T11:08:05.522Z,101328.25
2022-08-25T11:10:42.713Z,101326.22
2022-08-25T11:13:18.021Z,101330.47
2022-08-25T11:16:13.700Z,101309.06
2022-08-25T11:18:51.447Z,101322.56
2022-08-25T11:21:24.530Z,101313.81
2022-08-25T11:23:59.505Z,101311.09
2022-08-25T11:26:36.825Z,101308.69
2022-08-25T11:29:11.523Z,101309.38
2022-08-25T11:31:43.251Z,101315.38
2022-08-25T11:34:14.459Z,101304.53
2022-08-25T11:36:50.601Z,101306.31
2022-08-25T11:39:34.507Z,101299.66
2022-08-25T11:42:28.830Z,101295.13
2022-08-25T11:45:08.116Z,101290.00
2022-08-25T11:48:00.213Z,101300.88
2022-08-25T11:50:32.724Z,101299.59
2022-08-25T11:53:23.646Z,101298.13
2022-08-25T11:56:02.353Z,101298.28
2022-08-25T11:58:35.544Z,101303.81
2022-08-25T12:01:06.021Z,101295.06
2022-08-25T12:04:14.832Z,101294.59
2022-08-25T12:07:19.583Z,101289.72
2022-08-25T12:10:20.773Z,101298.81
2022-08-25T12:13:22.299Z,101294.75
2022-08-25T12:16:02.410Z,101288.75
2022-08-25T12:18:45.639Z,101282.25
2022-08-25T12:21:29.029Z,101280.63
2022-08-25T12:24:17.842Z,101273.66
2022-08-25T12:26:53.759Z,101278.47
2022-08-25T12:29:31.915Z,101271.16
2022-08-25T12:32:41.931Z,101281.56
2022-08-25T12:35:29.835Z,101258.50
2022-08-25T12:38:05.727Z,101268.06
2022-08-25T12:40:40.137Z,101274.56
2022-08-25T12:43:12.412Z,101264.47
2022-08-25T12:45:47.186Z,101265.75
2022-08-25T12:48:56.997Z,101264.78
2022-08-25T12:51:27.346Z,101256.97
2022-08-25T12:54:02.063Z,101258.25
2022-08-25T12:56:39.143Z,101256.28
2022-08-25T12:59:15.670Z,101250.59
2022-08-25T13:02:07.813Z,101252.03
2022-08-25T13:05:04.170Z,101248.75
2022-08-25T13:07:47.572Z,101247.75
2022-08-25T13:10:44.748Z,101247.56
2022-08-25T13:13:23.690Z,101245.44
2022-08-25T13:16:00.455Z,101243.63
2022-08-25T13:18:32.497Z,101243.28
2022-08-25T13:21:07.206Z,101240.81
2022-08-25T13:23:37.554Z,101240.63
2022-08-25T13:26:06.310Z,101231.31
2022-08-25T13:28:36.745Z,101228.56
2022-08-25T13:31:10.678Z,101221.06
2022-08-25T13:33:39.711Z,101208.03
2022-08-25T13:36:25.307Z,101218.91
2022-08-25T13:38:53.122Z,101213.03
2022-08-25T13:41:28.911Z,101214.50
2022-08-25T13:44:01.791Z,101219.03
2022-08-25T13:46:31.546Z,101215.56
2022-08-25T13:49:07.191Z,101216.19
2022-08-25T13:51:37.602Z,101215.50
2022-08-25T13:54:08.426Z,101206.19
2022-08-25T13:56:41.204Z,101212.19
2022-08-25T13:59:23.057Z,101214.63
2022-08-25T14:01:53.312Z,101213.16
2022-08-25T14:04:26.897Z,101214.91
2022-08-25T14:07:19.464Z,101216.53
2022-08-25T14:09:51.630Z,101211.47
2022-08-25T14:12:31.783Z,101204.91
2022-08-25T14:15:02.215Z,101210.56
2022-08-25T14:17:39.173Z,101200.78
2022-08-25T14:20:18.057Z,101198.00
2022-08-25T14:22:45.835Z,101192.13
2022-08-25T14:25:13.716Z,101189.34
2022-08-25T14:28:03.570Z,101193.75
2022-08-25T14:30:34.557Z,101189.81
2022-08-25T14:33:03.968Z,101198.25
2022-08-25T14:35:33.945Z,101184.88
2022-08-25T14:38:04.435Z,101186.19
2022-08-25T14:40:34.453Z,101183.56
2022-08-25T14:43:02.352Z,101181.22
2022-08-25T14:45:31.566Z,101178.91
2022-08-25T14:48:10.470Z,101181.34
2022-08-25T14:50:41.221Z,101182.28
2022-08-25T14:53:11.174Z,101179.16
2022-08-25T14:55:39.808Z,101176.88
2022-08-25T14:58:07.862Z,101169.38
2022-08-25T15:00:38.201Z,101174.22
2022-08-25T15:03:06.257Z,101176.66
2022-08-25T15:05:34.145Z,101172.72
2022-08-25T15:08:20.773Z,101166.72
2022-08-25T15:10:48.590Z,101178.16
2022-08-25T15:13:16.241Z,101167.06
2022-08-25T15:15:52.336Z,101175.84
2022-08-25T15:18:21.538Z,101163.25
2022-08-25T15:20:49.843Z,101162.91
2022-08-25T15:23:19.716Z,101162.22
2022-08-25T15:25:52.799Z,101159.81
2022-08-25T15:28:22.282Z,101159.94
2022-08-25T15:30:50.294Z,101156.34
2022-08-25T15:33:18.382Z,101148.84
2022-08-25T15:35:46.557Z,101154.38
2022-08-25T15:38:19.038Z,101147.22
2022-08-25T15:40:46.745Z,101149.66
2022-08-25T15:43:14.567Z,101154.38
2022-08-25T15:45:46.289Z,101156.47
2022-08-25T15:48:14.230Z,101153.34
2022-08-25T15:50:42.546Z,101149.78
2022-08-25T15:53:10.601Z,101156.94
2022-08-25T15:55:41.289Z,101157.41
2022-08-25T15:58:09.129Z,101152.19
2022-08-25T16:00:37.931Z,101148.28
2022-08-25T16:03:06.844Z,101149.44
2022-08-25T16:05:36.787Z,101149.09
2022-08-25T16:08:05.342Z,101157.88
2022-08-25T16:10:38.428Z,101141.25
2022-08-25T16:13:08.844Z,101145.16
2022-08-25T16:15:36.853Z,101146.31
2022-08-25T16:18:05.959Z,101142.75
2022-08-25T16:20:37.182Z,101139.84
2022-08-25T16:23:05.577Z,101144.91
2022-08-25T16:25:33.610Z,101144.47
2022-08-25T16:28:04.507Z,101138.44
2022-08-25T16:30:33.551Z,101147.44
2022-08-25T16:33:02.825Z,101148.25
2022-08-25T16:35:30.642Z,101135.56
2022-08-25T16:37:58.401Z,101141.91
2022-08-25T16:40:27.410Z,101143.53
2022-08-25T16:42:55.306Z,101138.34
2022-08-25T16:45:23.146Z,101141.22
2022-08-25T16:47:52.258Z,101143.66
2022-08-25T16:50:20.226Z,101142.50
2022-08-25T16:53:08.068Z,101151.63
2022-08-25T16:55:39.399Z,101133.72
2022-08-25T16:58:07.947Z,101142.03
2022-08-25T17:00:38.781Z,101127.38
2022-08-25T17:03:08.827Z,101138.44
2022-08-25T17:05:43.007Z,101136.03
2022-08-25T17:08:29.458Z,101139.59
2022-08-25T17:11:06.831Z,101132.91
2022-08-25T17:13:35.429Z,101133.59
2022-08-25T17:16:03.419Z,101135.56
2022-08-25T17:18:32.841Z,101124.00
2022-08-25T17:21:03.922Z,101132.66
2022-08-25T17:23:32.449Z,101117.19
2022-08-25T17:26:02.811Z,101123.09
2022-08-25T17:28:32.851Z,101121.47
2022-08-25T17:31:01.264Z,101119.03
2022-08-25T17:33:29.247Z,101120.06
2022-08-25T17:35:58.767Z,101129.66
2022-08-25T17:38:28.444Z,101122.50
2022-08-25T17:40:58.975Z,101122.03
2022-08-25T17:43:28.564Z,101133.09
2022-08-25T17:45:57.801Z,101129.88
2022-08-25T17:48:26.435Z,101138.53
2022-08-25T17:50:54.799Z,101138.06
2022-08-25T17:53:23.841Z,101134.47
2022-08-25T17:56:00.274Z,101135.66
2022-08-25T17:58:29.562Z,101139.13
2022-08-25T18:00:57.304Z,101134.38
2022-08-25T18:03:26.463Z,101136.34
2022-08-25T18:05:55.315Z,101136.34
2022-08-25T18:08:26.076Z,101132.78
2022-08-25T18:11:00.062Z,101137.16
2022-08-25T18:13:28.122Z,101139.94
2022-08-25T18:15:56.142Z,101149.38
2022-08-25T18:18:24.124Z,101146.63
2022-08-25T18:20:52.295Z,101153.28
2022-08-25T18:23:20.943Z,101154.78
2022-08-25T18:25:50.729Z,101161.47
2022-08-25T18:28:18.617Z,101165.72
2022-08-25T18:30:47.177Z,101173.91
2022-08-25T18:33:15.471Z,101167.41
2022-08-25T18:35:43.575Z,101167.63
2022-08-25T18:38:28.927Z,101169.13
2022-08-25T18:40:59.496Z,101175.34
2022-08-25T18:43:28.904Z,101177.16
2022-08-25T18:46:00.327Z,101174.25
2022-08-25T18:48:28.498Z,101174.94
2022-08-25T18:50:56.691Z,101181.16
2022-08-25T18:53:30.464Z,101188.03
2022-08-25T18:56:07.475Z,101189.72
2022-08-25T18:58:35.993Z,101196.09
2022-08-25T19:01:04.279Z,101194.00
2022-08-25T19:03:32.571Z,101197.31
2022-08-25T19:06:00.678Z,101197.31
2022-08-25T19:08:28.527Z,101202.38
2022-08-25T19:10:56.329Z,101207.63
2022-08-25T19:13:25.690Z,101209.28
2022-08-25T19:15:53.457Z,101221.84
2022-08-25T19:18:26.156Z,101220.53
2022-08-25T19:20:58.434Z,101229.31
2022-08-25T19:23:26.859Z,101230.13
2022-08-25T19:25:54.588Z,101218.31
2022-08-25T19:28:26.046Z,101229.50
2022-08-25T19:30:54.133Z,101228.22
2022-08-25T19:33:42.835Z,101235.22
2022-08-25T19:36:09.924Z,101241.09
2022-08-25T19:38:39.351Z,101240.59
2022-08-25T19:41:10.645Z,101242.91
2022-08-25T19:43:50.626Z,101253.47
2022-08-25T19:46:25.971Z,101273.34
2022-08-25T19:49:07.225Z,101263.91
2022-08-25T19:51:36.806Z,101273.00
2022-08-25T19:54:05.097Z,101274.47
2022-08-25T19:56:35.102Z,101274.19
2022-08-25T19:59:05.623Z,101282.81
2022-08-25T20:01:33.350Z,101278.75
2022-08-25T20:04:03.526Z,101275.00
2022-08-25T20:06:32.123Z,101275.03
2022-08-25T20:09:00.702Z,101285.94
2022-08-25T20:11:30.000Z,101293.41
2022-08-25T20:14:03.024Z,101288.38
2022-08-25T20:16:32.868Z,101287.41
2022-08-25T20:19:01.121Z,101295.22
2022-08-25T20:21:33.590Z,101299.63
2022-08-25T20:24:37.641Z,101318.00
2022-08-25T20:27:05.630Z,101307.13
2022-08-25T20:29:33.313Z,101317.50
2022-08-25T20:32:02.379Z,101310.03
2022-08-25T20:34:31.728Z,101313.63
2022-08-25T20:37:00.350Z,101323.38
2022-08-25T20:39:28.070Z,101322.53
2022-08-25T20:41:56.594Z,101321.38
2022-08-25T20:44:24.559Z,101316.19
2022-08-25T20:46:52.297Z,101321.53
2022-08-25T20:49:26.716Z,101327.41
2022-08-25T20:51:54.403Z,101322.88
2022-08-25T20:54:24.966Z,101328.41
2022-08-25T20:56:54.214Z,101328.03
2022-08-25T20:59:22.302Z,101329.19
2022-08-25T21:01:50.762Z,101329.00
2022-08-25T21:04:21.864Z,101336.47
2022-08-25T21:06:51.917Z,101336.97
2022-08-25T21:09:22.829Z,101333.88
2022-08-25T21:11:54.267Z,101340.69
2022-08-25T21:14:22.770Z,101341.81
2022-08-25T21:16:52.478Z,101347.66
2022-08-25T21:19:26.723Z,101344.53
2022-08-25T21:22:00.278Z,101340.47
2022-08-25T21:24:29.356Z,101344.88
2022-08-25T21:26:59.649Z,101349.06
2022-08-25T21:29:29.957Z,101346.16
2022-08-25T21:31:59.307Z,101356.81
2022-08-25T21:34:28.755Z,101354.03
2022-08-25T21:36:57.994Z,101347.50
2022-08-25T21:39:29.657Z,101348.78
2022-08-25T21:42:00.491Z,101352.69
2022-08-25T21:44:29.389Z,101354.00
2022-08-25T21:46:57.263Z,101362.44
2022-08-25T21:49:25.562Z,101353.50
2022-08-25T21:52:01.054Z,101359.66
2022-08-25T21:54:32.001Z,101370.19
2022-08-25T21:57:02.116Z,101369.38
2022-08-25T21:59:32.047Z,101366.94
2022-08-25T22:02:02.671Z,101363.66
2022-08-25T22:04:31.183Z,101362.84
2022-08-25T22:06:59.311Z,101377.91
2022-08-25T22:09:28.214Z,101370.91
2022-08-25T22:11:58.578Z,101381.06
2022-08-25T22:14:28.215Z,101383.97
2022-08-25T22:16:56.448Z,101385.91
2022-08-25T22:19:24.869Z,101399.06
2022-08-25T22:21:53.800Z,101399.38
2022-08-25T22:24:21.637Z,101389.78
2022-08-25T22:26:49.432Z,101393.69
2022-08-25T22:29:25.769Z,101385.94
2022-08-25T22:32:00.145Z,101389.53
2022-08-25T22:34:32.311Z,101381.19
2022-08-25T22:37:00.778Z,101388.53
2022-08-25T22:39:28.813Z,101391.09
2022-08-25T22:41:56.786Z,101389.78
2022-08-25T22:44:26.167Z,101403.06
2022-08-25T22:46:54.392Z,101393.91
2022-08-25T22:49:22.202Z,101395.84
2022-08-25T22:51:49.958Z,101394.53
2022-08-25T22:54:19.050Z,101398.09
2022-08-25T22:56:46.710Z,101395.34
2022-08-25T22:59:15.489Z,101395.03
2022-08-25T23:01:45.985Z,101401.00
2022-08-25T23:04:14.700Z,101391.75
2022-08-25T23:06:42.946Z,101397.06
2022-08-25T23:09:11.218Z,101401.56
2022-08-25T23:11:39.391Z,101402.19
2022-08-25T23:14:10.853Z,101397.28
2022-08-25T23:16:38.970Z,101394.34
2022-08-25T23:19:08.533Z,101400.78
2022-08-25T23:21:53.601Z,101393.66
2022-08-25T23:24:29.565Z,101401.59
2022-08-25T23:26:58.805Z,101405.16
2022-08-25T23:29:27.675Z,101401.59
2022-08-25T23:31:56.038Z,101401.41
2022-08-25T23:34:26.370Z,101393.78
2022-08-25T23:36:55.786Z,101396.91
2022-08-25T23:39:23.640Z,101397.72
2022-08-25T23:41:52.665Z,101392.84
2022-08-25T23:44:21.989Z,101402.22
2022-08-25T23:46:49.832Z,101387.75
2022-08-25T23:49:19.856Z,101390.31
2022-08-25T23:51:52.660Z,101389.50
2022-08-25T23:54:21.970Z,101390.41
2022-08-25T23:56:58.931Z,101397.47
2022-08-25T23:59:26.803Z,101388.31
